Time;durP1;ratioP1;P1;durP2;ratioP2;P2;SDS_P1;SDS_P2;PMS_P1;PMS_P2;Temp;Humidity;BMP_temperature;BMP_pressure;BME280_temperature;BME280_humidity;BME280_pressure;Samples;Min_cycle;Max_cycle;Signal;HPM_P1;HPM_P2
2023/04/12 00:00:19;;;;;;;6.18;2.30;;;37.80;24.80;;;;;;5051986;28;20427;-67
2023/04/12 00:02:46;;;;;;;11.35;2.20;;;37.80;24.40;;;;;;5050216;28;20032;-66
2023/04/12 00:05:15;;;;;;;9.70;2.40;;;37.70;24.50;;;;;;5050378;28;20025;-66
2023/04/12 00:07:45;;;;;;;11.85;3.08;;;37.70;24.50;;;;;;5051281;28;20108;-64
2023/04/12 00:10:11;;;;;;;11.90;2.75;;;37.50;24.20;;;;;;5049854;28;20024;-65
2023/04/12 00:12:39;;;;;;;13.55;2.88;;;37.30;24.80;;;;;;5050717;28;20116;-65
2023/04/12 00:15:07;;;;;;;12.45;2.28;;;37.40;24.80;;;;;;5053471;28;20025;-64
2023/04/12 00:17:33;;;;;;;14.65;2.58;;;37.30;24.50;;;;;;5053101;28;20013;-65
2023/04/12 00:20:00;;;;;;;7.82;2.33;;;37.20;24.60;;;;;;5056654;28;20408;-65
2023/04/12 00:22:27;;;;;;;16.70;2.50;;;37.10;24.20;;;;;;5050289;28;20053;-65
2023/04/12 00:24:53;;;;;;;20.70;2.30;;;37.10;24.50;;;;;;5049047;28;20032;-68
2023/04/12 00:27:20;;;;;;;11.82;2.05;;;37.00;24.10;;;;;;5050344;28;20435;-65
2023/04/12 00:29:46;;;;;;;9.25;1.60;;;36.80;24.00;;;;;;5047580;28;20055;-68
2023/04/12 00:32:12;;;;;;;9.40;1.83;;;36.90;24.20;;;;;;5047672;28;20022;-64
2023/04/12 00:34:39;;;;;;;11.25;2.33;;;36.80;24.00;;;;;;5051407;28;20023;-66
2023/04/12 00:37:05;;;;;;;13.77;1.92;;;36.60;24.00;;;;;;5049954;28;20056;-67
2023/04/12 00:39:32;;;;;;;8.18;2.20;;;36.70;23.80;;;;;;5052175;28;20059;-65
2023/04/12 00:42:04;;;;;;;24.65;2.92;;;36.70;23.90;;;;;;5050877;28;20492;-66
2023/04/12 00:44:32;;;;;;;19.90;2.28;;;36.70;23.90;;;;;;5053394;28;20580;-67
2023/04/12 00:46:59;;;;;;;9.23;1.67;;;36.70;23.80;;;;;;5050432;28;20495;-66
2023/04/12 00:49:29;;;;;;;9.25;1.75;;;36.50;23.60;;;;;;5055456;28;20029;-64
2023/04/12 00:52:05;;;;;;;18.55;2.17;;;36.40;23.80;;;;;;5050305;28;20040;-67
2023/04/12 00:54:33;;;;;;;10.00;2.17;;;36.20;23.60;;;;;;5050033;28;20040;-65
2023/04/12 00:57:00;;;;;;;7.13;2.10;;;36.00;23.60;;;;;;5049387;28;20033;-65
2023/04/12 00:59:27;;;;;;;16.58;2.47;;;36.10;24.00;;;;;;5048873;28;20082;-69
2023/04/12 01:01:55;;;;;;;10.52;2.60;;;36.10;24.10;;;;;;5055702;28;20038;-63
2023/04/12 01:04:25;;;;;;;6.13;1.95;;;36.00;24.20;;;;;;5054482;28;20036;-65
2023/04/12 01:07:25;;;;;;;11.82;1.90;;;35.90;25.50;;;;;;5051850;28;20136;-64
2023/04/12 01:10:09;;;;;;;7.65;2.25;;;35.90;25.80;;;;;;5038788;28;20064;-66
2023/04/12 01:12:39;;;;;;;7.93;2.47;;;35.70;25.80;;;;;;5053174;28;20443;-65
2023/04/12 01:15:11;;;;;;;7.55;2.53;;;35.70;25.90;;;;;;5049618;28;20092;-66
2023/04/12 01:18:04;;;;;;;5.97;2.63;;;35.60;25.60;;;;;;5049419;28;20135;-66
2023/04/12 01:20:43;;;;;;;11.38;2.28;;;35.50;25.10;;;;;;5049590;28;20083;-65
2023/04/12 01:23:44;;;;;;;10.23;2.60;;;35.40;25.10;;;;;;5046629;28;20165;-65
2023/04/12 01:26:44;;;;;;;9.25;2.60;;;35.20;25.10;;;;;;5049340;28;20043;-64
2023/04/12 01:29:21;;;;;;;15.82;2.83;;;35.00;25.30;;;;;;5010441;28;20624;-66
2023/04/12 01:32:03;;;;;;;9.38;2.58;;;34.90;25.90;;;;;;5019706;28;20463;-66
2023/04/12 01:34:32;;;;;;;7.70;2.70;;;34.70;25.20;;;;;;5018765;28;20049;-65
2023/04/12 01:37:02;;;;;;;12.43;2.30;;;34.50;25.40;;;;;;5019718;28;20044;-65
2023/04/12 01:39:29;;;;;;;7.93;2.65;;;34.40;25.50;;;;;;5011466;28;20076;-63
2023/04/12 01:41:56;;;;;;;9.05;2.80;;;34.30;25.50;;;;;;5012801;28;20045;-64
2023/04/12 01:44:22;;;;;;;9.18;2.42;;;34.20;25.70;;;;;;5024501;28;20347;-66
2023/04/12 01:46:50;;;;;;;5.00;2.33;;;34.00;25.60;;;;;;5023839;28;20054;-65
2023/04/12 01:49:18;;;;;;;10.25;2.72;;;34.00;25.80;;;;;;5023629;28;20053;-65
2023/04/12 01:52:05;;;;;;;9.35;2.35;;;33.90;25.80;;;;;;5014774;28;20053;-62
2023/04/12 01:54:37;;;;;;;12.30;2.65;;;33.70;25.90;;;;;;5021267;28;20089;-64
2023/04/12 01:57:07;;;;;;;15.45;2.95;;;33.60;26.00;;;;;;5017663;28;20080;-63
2023/04/12 01:59:42;;;;;;;7.68;3.00;;;33.50;26.20;;;;;;5012703;28;20556;-65
2023/04/12 02:02:10;;;;;;;9.88;3.22;;;33.40;26.30;;;;;;5012584;28;20080;-65
2023/04/12 02:04:37;;;;;;;15.38;3.22;;;33.30;26.50;;;;;;5032391;28;20056;-63
2023/04/12 02:07:04;;;;;;;17.92;3.20;;;33.20;26.40;;;;;;5047570;28;20179;-62
2023/04/12 02:09:38;;;;;;;21.15;3.83;;;33.20;26.60;;;;;;5047361;28;20554;-64
2023/04/12 02:12:07;;;;;;;24.60;4.80;;;33.10;26.70;;;;;;5048258;28;20072;-66
2023/04/12 02:14:34;;;;;;;18.77;5.13;;;33.00;27.00;;;;;;5047483;28;20599;-64
2023/04/12 02:17:01;;;;;;;17.30;4.63;;;32.80;27.40;;;;;;5047486;28;20195;-67
2023/04/12 02:19:27;;;;;;;24.08;5.32;;;32.80;27.70;;;;;;5046156;28;20147;-65
2023/04/12 02:21:54;;;;;;;18.70;5.72;;;32.70;27.70;;;;;;5046818;28;20053;-63
2023/04/12 02:24:20;;;;;;;19.92;6.35;;;32.60;28.10;;;;;;5050365;28;20056;-64
2023/04/12 02:26:50;;;;;;;14.95;5.53;;;32.40;28.70;;;;;;5046180;28;20052;-63
2023/04/12 02:29:16;;;;;;;23.02;6.20;;;32.20;28.70;;;;;;5047186;28;20058;-63
2023/04/12 02:31:43;;;;;;;21.50;6.22;;;32.10;28.60;;;;;;5046414;28;20047;-65
2023/04/12 02:34:09;;;;;;;22.10;5.53;;;31.90;28.90;;;;;;5045518;28;20099;-62
2023/04/12 02:36:36;;;;;;;19.77;5.78;;;31.80;29.30;;;;;;5048165;28;20053;-63
2023/04/12 02:39:03;;;;;;;16.00;5.68;;;31.60;29.20;;;;;;5050235;28;20067;-62
2023/04/12 02:41:29;;;;;;;25.67;5.07;;;31.60;29.20;;;;;;5048022;28;20100;-64
2023/04/12 02:43:56;;;;;;;17.27;4.38;;;31.40;29.10;;;;;;5047835;28;20153;-62
2023/04/12 02:46:24;;;;;;;16.52;4.15;;;31.30;28.90;;;;;;5047229;28;20542;-66
2023/04/12 02:48:50;;;;;;;20.45;4.43;;;31.20;28.70;;;;;;5047250;28;20060;-64
2023/04/12 02:51:17;;;;;;;13.77;3.15;;;31.10;28.40;;;;;;5047331;28;20064;-63
2023/04/12 02:53:43;;;;;;;15.80;2.90;;;31.00;28.60;;;;;;5048571;28;21338;-64
2023/04/12 02:56:11;;;;;;;18.27;2.70;;;31.00;28.90;;;;;;5047625;28;20154;-64
2023/04/12 02:58:38;;;;;;;7.35;2.25;;;30.90;28.90;;;;;;5047477;28;20048;-64
2023/04/12 03:01:07;;;;;;;7.82;1.90;;;30.80;28.90;;;;;;5047320;28;20148;-64
2023/04/12 03:03:34;;;;;;;7.65;2.53;;;30.60;28.90;;;;;;5050746;28;20637;-63
2023/04/12 03:06:01;;;;;;;13.63;2.28;;;30.50;29.00;;;;;;5048263;28;20625;-62
2023/04/12 03:08:27;;;;;;;8.88;2.15;;;30.40;28.90;;;;;;5049917;28;20136;-67
2023/04/12 03:10:54;;;;;;;12.23;2.47;;;30.40;28.80;;;;;;5048444;28;20108;-64
2023/04/12 03:13:20;;;;;;;14.35;2.20;;;30.30;29.00;;;;;;5048963;28;20052;-63
2023/04/12 03:15:50;;;;;;;13.75;1.65;;;30.10;29.00;;;;;;5050406;28;20550;-63
2023/04/12 03:18:19;;;;;;;8.40;2.35;;;30.00;28.90;;;;;;5051349;28;20065;-64
2023/04/12 03:20:46;;;;;;;8.43;2.08;;;30.00;29.00;;;;;;5050927;28;20069;-64
2023/04/12 03:23:12;;;;;;;12.10;1.90;;;29.90;28.80;;;;;;5050634;28;20106;-64
2023/04/12 03:25:39;;;;;;;12.05;2.03;;;29.80;28.80;;;;;;5051208;28;20127;-65
2023/04/12 03:28:06;;;;;;;10.15;1.70;;;29.80;28.30;;;;;;5052264;28;20144;-64
2023/04/12 03:30:32;;;;;;;13.90;2.25;;;29.80;28.50;;;;;;5051328;28;20727;-62
2023/04/12 03:32:59;;;;;;;24.90;2.92;;;29.70;28.30;;;;;;5048659;28;20059;-62
2023/04/12 03:35:26;;;;;;;14.65;1.98;;;29.60;27.80;;;;;;5049754;28;20107;-63
2023/04/12 03:37:52;;;;;;;6.50;2.20;;;29.60;27.80;;;;;;5049073;28;20163;-63
2023/04/12 03:40:18;;;;;;;9.70;2.03;;;29.60;27.80;;;;;;5049488;28;20079;-64
2023/04/12 03:42:45;;;;;;;5.50;2.15;;;29.60;27.70;;;;;;5055157;28;20074;-64
2023/04/12 03:45:11;;;;;;;11.13;2.63;;;29.60;27.80;;;;;;5052730;28;20094;-63
2023/04/12 03:47:38;;;;;;;9.35;2.20;;;29.50;27.70;;;;;;5053052;28;20633;-63
2023/04/12 03:50:06;;;;;;;6.03;2.00;;;29.50;27.80;;;;;;5048320;28;20085;-64
2023/04/12 03:52:33;;;;;;;5.93;1.63;;;29.40;27.70;;;;;;5050674;28;20060;-61
2023/04/12 03:55:00;;;;;;;9.00;2.50;;;29.50;27.70;;;;;;5052198;28;20116;-64
2023/04/12 03:57:26;;;;;;;36.03;4.25;;;29.40;28.00;;;;;;5052757;28;20066;-63
2023/04/12 03:59:52;;;;;;;19.90;2.20;;;29.20;28.20;;;;;;5056170;28;20071;-63
2023/04/12 04:02:19;;;;;;;22.08;2.65;;;29.20;28.40;;;;;;5057853;28;20185;-62
2023/04/12 04:04:46;;;;;;;24.65;2.53;;;29.10;27.90;;;;;;5051926;28;20062;-62
2023/04/12 04:07:13;;;;;;;33.33;3.22;;;29.10;27.80;;;;;;5052437;28;20080;-62
2023/04/12 04:09:40;;;;;;;21.30;2.22;;;28.90;28.20;;;;;;5056888;28;20082;-61
2023/04/12 04:12:07;;;;;;;9.15;1.50;;;28.90;28.10;;;;;;5051289;28;20082;-62
2023/04/12 04:14:35;;;;;;;13.05;2.47;;;28.90;27.90;;;;;;5052250;28;20428;-63
2023/04/12 04:17:02;;;;;;;12.18;1.73;;;28.80;27.80;;;;;;5051990;28;20977;-64
2023/04/12 04:19:28;;;;;;;12.27;2.00;;;28.70;27.60;;;;;;5051335;28;20548;-62
2023/04/12 04:21:55;;;;;;;17.92;2.40;;;28.70;27.80;;;;;;5050539;28;21674;-62
2023/04/12 04:24:23;;;;;;;7.72;1.80;;;28.60;27.90;;;;;;5052183;28;20102;-63
2023/04/12 04:26:53;;;;;;;5.32;1.85;;;28.60;27.90;;;;;;5048288;28;20074;-64
2023/04/12 04:29:19;;;;;;;5.47;1.67;;;28.50;27.70;;;;;;5049977;28;20142;-64
2023/04/12 04:31:46;;;;;;;9.50;1.98;;;28.50;27.60;;;;;;5049041;28;20064;-65
2023/04/12 04:34:12;;;;;;;4.85;1.80;;;28.40;27.80;;;;;;5046676;28;20115;-62
2023/04/12 04:36:40;;;;;;;4.53;1.65;;;28.40;27.70;;;;;;5048404;28;20062;-64
2023/04/12 04:39:07;;;;;;;8.30;2.08;;;28.30;27.60;;;;;;5048769;28;20087;-63
2023/04/12 04:41:38;;;;;;;5.32;1.85;;;28.20;28.00;;;;;;5049358;28;20087;-63
2023/04/12 04:44:08;;;;;;;3.80;1.67;;;28.20;27.90;;;;;;5049355;28;21456;-65
2023/04/12 04:46:36;;;;;;;9.52;2.08;;;28.10;27.90;;;;;;5049278;28;20076;-64
2023/04/12 04:49:04;;;;;;;6.88;2.08;;;28.00;27.60;;;;;;5049235;28;20136;-65
2023/04/12 04:51:30;;;;;;;4.38;1.60;;;28.00;27.60;;;;;;5050041;28;20100;-64
2023/04/12 04:53:57;;;;;;;6.43;2.00;;;28.00;27.60;;;;;;5048195;28;20160;-63
2023/04/12 04:56:24;;;;;;;8.55;2.00;;;28.00;27.50;;;;;;5048878;28;20586;-64
2023/04/12 04:58:51;;;;;;;4.35;1.80;;;27.90;27.70;;;;;;5049343;28;20119;-65
2023/04/12 05:01:17;;;;;;;8.38;2.13;;;27.90;28.10;;;;;;5047296;28;20074;-64
2023/04/12 05:03:44;;;;;;;8.50;1.95;;;27.90;28.40;;;;;;5052196;28;20075;-65
2023/04/12 05:06:10;;;;;;;11.65;1.95;;;27.80;28.60;;;;;;5049220;28;20098;-63
2023/04/12 05:08:39;;;;;;;8.75;1.67;;;27.80;28.70;;;;;;5050359;28;20078;-66
2023/04/12 05:11:06;;;;;;;4.80;2.15;;;27.70;28.80;;;;;;5048643;28;20078;-66
2023/04/12 05:13:32;;;;;;;7.97;2.10;;;27.60;28.80;;;;;;5049798;28;20066;-63
2023/04/12 05:15:59;;;;;;;11.00;2.00;;;27.60;28.70;;;;;;5050824;28;20522;-64
2023/04/12 05:18:25;;;;;;;5.40;2.22;;;27.50;28.50;;;;;;5048646;28;20062;-65
2023/04/12 05:20:52;;;;;;;9.05;2.10;;;27.50;28.40;;;;;;5049608;28;20067;-62
2023/04/12 05:23:18;;;;;;;3.17;2.00;;;27.50;28.60;;;;;;5048510;28;20109;-64
2023/04/12 05:25:46;;;;;;;6.80;2.50;;;27.40;28.30;;;;;;5048516;28;20100;-64
2023/04/12 05:28:16;;;;;;;4.05;2.05;;;27.40;27.90;;;;;;5049090;28;20076;-63
2023/04/12 05:30:44;;;;;;;9.60;2.55;;;27.40;28.10;;;;;;5048496;28;20543;-63
2023/04/12 05:33:10;;;;;;;7.65;1.92;;;27.40;27.90;;;;;;5049096;28;20086;-63
2023/04/12 05:35:37;;;;;;;13.40;2.20;;;27.40;27.90;;;;;;5044516;28;20109;-64
2023/04/12 05:38:03;;;;;;;5.47;2.13;;;27.40;27.70;;;;;;5047890;28;20074;-63
2023/04/12 05:40:30;;;;;;;6.55;2.67;;;27.30;27.70;;;;;;5048603;28;20101;-66
2023/04/12 05:42:57;;;;;;;6.60;2.33;;;27.30;27.70;;;;;;5047525;28;20068;-64
2023/04/12 05:45:24;;;;;;;7.57;2.47;;;27.20;27.70;;;;;;5048029;28;20438;-65
2023/04/12 05:47:50;;;;;;;8.55;2.60;;;27.20;27.90;;;;;;5047554;28;20722;-66
2023/04/12 05:50:16;;;;;;;7.88;2.00;;;27.10;27.90;;;;;;5048191;28;20088;-65
2023/04/12 05:52:43;;;;;;;4.93;2.35;;;27.10;28.20;;;;;;5049270;28;20933;-64
2023/04/12 05:55:09;;;;;;;4.55;2.45;;;27.10;27.50;;;;;;5047711;28;20125;-64
2023/04/12 05:57:36;;;;;;;10.10;2.25;;;27.10;27.60;;;;;;5048431;28;20090;-64
2023/04/12 06:00:13;;;;;;;8.55;2.53;;;27.10;27.50;;;;;;5047394;28;20090;-62
2023/04/12 06:02:40;;;;;;;7.63;2.50;;;27.10;27.50;;;;;;5048435;28;20087;-62
2023/04/12 06:05:08;;;;;;;4.78;2.33;;;27.10;27.80;;;;;;5051391;28;20141;-63
2023/04/12 06:07:35;;;;;;;7.68;2.10;;;27.00;27.70;;;;;;5047391;28;20079;-65
2023/04/12 06:10:02;;;;;;;4.28;2.30;;;27.00;27.50;;;;;;5047810;28;20519;-63
2023/04/12 06:12:29;;;;;;;9.55;2.50;;;26.80;27.70;;;;;;5048109;28;20068;-63
2023/04/12 06:14:55;;;;;;;5.05;2.28;;;26.80;27.80;;;;;;5049513;28;20097;-64
2023/04/12 06:17:22;;;;;;;12.23;2.90;;;26.70;27.70;;;;;;5048200;28;20060;-62
2023/04/12 06:19:48;;;;;;;8.05;2.65;;;26.60;27.60;;;;;;5047447;28;20080;-63
2023/04/12 06:22:15;;;;;;;9.77;2.42;;;26.60;27.60;;;;;;5055281;28;20083;-64
2023/04/12 06:24:41;;;;;;;8.98;2.35;;;26.60;27.80;;;;;;5046877;28;20109;-66
2023/04/12 06:27:08;;;;;;;10.98;2.70;;;26.50;27.80;;;;;;5048556;28;20082;-64
2023/04/12 06:29:34;;;;;;;7.95;2.47;;;26.50;27.90;;;;;;5047543;28;20078;-64
2023/04/12 06:32:00;;;;;;;7.45;2.50;;;26.50;27.90;;;;;;5048617;28;20072;-63
2023/04/12 06:34:27;;;;;;;7.72;2.50;;;26.40;27.80;;;;;;5047849;28;20076;-64
2023/04/12 06:36:53;;;;;;;9.90;2.97;;;26.40;27.80;;;;;;5044720;28;20437;-64
2023/04/12 06:39:20;;;;;;;7.90;2.67;;;26.30;27.70;;;;;;5047344;28;20556;-64
2023/04/12 06:41:47;;;;;;;7.18;2.63;;;26.20;27.70;;;;;;5047405;28;20771;-63
2023/04/12 06:44:13;;;;;;;11.40;3.17;;;26.20;27.50;;;;;;5047717;28;20516;-65
2023/04/12 06:46:39;;;;;;;10.32;3.30;;;26.20;27.60;;;;;;5048675;28;20075;-62
2023/04/12 06:49:06;;;;;;;9.40;2.95;;;26.20;27.40;;;;;;5052098;28;20075;-64
2023/04/12 06:51:34;;;;;;;9.35;2.83;;;26.20;27.40;;;;;;5051039;28;20175;-65
2023/04/12 06:54:00;;;;;;;10.38;3.00;;;26.20;27.20;;;;;;5052570;28;21581;-63
2023/04/12 06:56:27;;;;;;;8.73;2.88;;;26.10;27.20;;;;;;5051334;28;20141;-64
2023/04/12 06:58:53;;;;;;;14.95;3.53;;;26.10;27.10;;;;;;5051854;28;20073;-64
2023/04/12 07:01:19;;;;;;;8.50;2.70;;;26.10;27.10;;;;;;5051604;28;20429;-64
2023/04/12 07:03:46;;;;;;;6.57;2.70;;;26.10;27.00;;;;;;5051855;28;20080;-64
2023/04/12 07:06:13;;;;;;;11.93;2.85;;;26.10;27.10;;;;;;5051448;28;20129;-63
2023/04/12 07:08:39;;;;;;;9.02;2.63;;;26.00;27.10;;;;;;5050693;28;20229;-65
2023/04/12 07:11:06;;;;;;;7.88;3.00;;;26.00;27.30;;;;;;5050129;28;20159;-60
2023/04/12 07:13:32;;;;;;;12.95;3.30;;;26.00;27.40;;;;;;5051403;28;20071;-61
2023/04/12 07:15:59;;;;;;;8.15;2.78;;;25.90;27.30;;;;;;5051617;28;20076;-61
2023/04/12 07:18:26;;;;;;;13.90;2.92;;;25.90;27.30;;;;;;5050919;28;20086;-61
2023/04/12 07:20:55;;;;;;;13.38;2.80;;;25.80;27.40;;;;;;5050066;28;20079;-61
2023/04/12 07:23:22;;;;;;;8.23;2.65;;;25.80;27.60;;;;;;5050925;28;20092;-60
2023/04/12 07:25:49;;;;;;;15.25;2.95;;;25.70;27.70;;;;;;5050218;28;20439;-62
2023/04/12 07:28:15;;;;;;;8.93;2.78;;;25.70;27.90;;;;;;5050868;28;20108;-60
2023/04/12 07:30:42;;;;;;;11.48;3.45;;;25.60;27.90;;;;;;5050731;28;20096;-61
2023/04/12 07:33:08;;;;;;;9.77;2.97;;;25.50;27.90;;;;;;5051724;28;20178;-61
2023/04/12 07:35:34;;;;;;;12.65;3.22;;;25.50;27.90;;;;;;5050398;28;20173;-63
2023/04/12 07:38:01;;;;;;;6.22;2.80;;;25.40;28.10;;;;;;5047914;28;20156;-61
2023/04/12 07:40:28;;;;;;;12.23;3.25;;;25.40;28.40;;;;;;5050018;28;20096;-61
2023/04/12 07:42:54;;;;;;;11.10;3.38;;;25.40;28.40;;;;;;5052388;28;20148;-60
2023/04/12 07:45:21;;;;;;;8.43;3.20;;;25.30;28.50;;;;;;5051163;28;20084;-61
2023/04/12 07:47:47;;;;;;;9.25;2.92;;;25.30;28.20;;;;;;5050539;28;20074;-60
2023/04/12 07:50:14;;;;;;;12.98;3.30;;;25.20;28.80;;;;;;5052077;28;20121;-61
2023/04/12 07:52:40;;;;;;;11.20;2.90;;;25.10;28.50;;;;;;5050456;28;20588;-60
2023/04/12 07:55:08;;;;;;;12.20;3.03;;;25.00;28.50;;;;;;5051951;28;20591;-61
2023/04/12 07:57:35;;;;;;;14.18;3.30;;;25.00;28.90;;;;;;5056833;28;20082;-60
2023/04/12 08:00:04;;;;;;;11.45;3.47;;;24.90;29.00;;;;;;5048140;28;20111;-60
2023/04/12 08:02:31;;;;;;;10.60;2.90;;;24.90;28.80;;;;;;5049756;28;20171;-60
2023/04/12 08:04:57;;;;;;;9.02;3.47;;;24.80;29.00;;;;;;5053156;28;20156;-61
2023/04/12 08:07:25;;;;;;;11.98;3.30;;;24.70;29.10;;;;;;5048693;28;20083;-60
2023/04/12 08:09:52;;;;;;;10.50;3.67;;;24.70;30.10;;;;;;5048625;28;20167;-61
2023/04/12 08:12:20;;;;;;;8.88;3.30;;;24.60;29.90;;;;;;5048570;28;20069;-61
2023/04/12 08:14:46;;;;;;;12.55;3.15;;;24.50;31.30;;;;;;5050735;28;20104;-61
2023/04/12 08:17:12;;;;;;;13.50;3.30;;;24.50;30.30;;;;;;5050390;28;20082;-61
2023/04/12 08:19:39;;;;;;;15.68;3.80;;;24.40;30.00;;;;;;5050908;28;20088;-62
2023/04/12 08:22:07;;;;;;;22.05;3.90;;;24.30;30.20;;;;;;5048745;28;20074;-62
2023/04/12 08:24:33;;;;;;;16.73;3.70;;;24.20;30.00;;;;;;5049861;28;20129;-61
2023/04/12 08:27:00;;;;;;;13.68;4.00;;;24.20;30.60;;;;;;5052631;28;20072;-61
2023/04/12 08:29:26;;;;;;;11.55;3.22;;;24.10;32.00;;;;;;5049877;28;20073;-61
2023/04/12 08:31:55;;;;;;;14.40;3.65;;;24.00;32.40;;;;;;5049281;28;20144;-61
2023/04/12 08:34:23;;;;;;;21.55;5.93;;;23.90;33.00;;;;;;5049343;28;20072;-61
2023/04/12 08:36:49;;;;;;;20.25;5.78;;;23.70;31.80;;;;;;5049665;28;20068;-62
2023/04/12 08:39:16;;;;;;;22.05;7.00;;;23.70;31.40;;;;;;5047412;28;20076;-61
2023/04/12 08:41:43;;;;;;;25.90;6.90;;;23.60;32.20;;;;;;5048779;28;20127;-62
2023/04/12 08:44:11;;;;;;;26.23;6.50;;;23.60;31.90;;;;;;5049744;28;20107;-61
2023/04/12 08:46:37;;;;;;;21.75;5.70;;;23.60;32.30;;;;;;5048999;28;20551;-61
2023/04/12 08:49:04;;;;;;;16.45;5.43;;;23.60;31.80;;;;;;5049204;28;20540;-61
2023/04/12 08:51:33;;;;;;;21.48;6.03;;;23.60;33.00;;;;;;5049048;28;20145;-61
2023/04/12 08:53:59;;;;;;;30.20;6.65;;;23.50;32.10;;;;;;5049067;28;20107;-61
2023/04/12 08:56:27;;;;;;;29.77;7.07;;;23.40;32.40;;;;;;5048614;28;20163;-62
2023/04/12 08:58:54;;;;;;;38.90;8.10;;;23.30;34.70;;;;;;5048829;28;20069;-61
2023/04/12 09:01:21;;;;;;;31.95;7.82;;;23.20;34.60;;;;;;5048533;28;20068;-60
2023/04/12 09:03:47;;;;;;;42.80;9.15;;;23.20;34.40;;;;;;5051131;28;20077;-61
2023/04/12 09:06:14;;;;;;;42.40;9.27;;;23.00;34.50;;;;;;5048459;28;20072;-61
2023/04/12 09:08:56;;;;;;;43.05;11.60;;;23.00;35.20;;;;;;5049202;28;20080;-61
2023/04/12 09:11:28;;;;;;;43.35;11.90;;;23.00;36.40;;;;;;5050699;28;20087;-60
2023/04/12 09:13:56;;;;;;;53.40;14.20;;;23.00;36.20;;;;;;5048651;28;20064;-60
2023/04/12 09:16:40;;;;;;;46.33;13.18;;;23.00;35.80;;;;;;5048986;28;20068;-61
2023/04/12 09:19:07;;;;;;;44.72;12.57;;;22.90;36.30;;;;;;5048691;28;20068;-61
2023/04/12 09:21:35;;;;;;;42.83;13.30;;;22.90;37.10;;;;;;5049715;28;20079;-60
2023/04/12 09:24:11;;;;;;;52.45;13.93;;;22.80;37.40;;;;;;5047966;28;20121;-61
2023/04/12 09:26:39;;;;;;;57.75;13.73;;;22.70;39.00;;;;;;5047315;28;20087;-61
2023/04/12 09:29:05;;;;;;;55.60;14.70;;;22.70;38.70;;;;;;5047924;28;20102;-61
2023/04/12 09:31:31;;;;;;;67.75;14.00;;;22.60;39.20;;;;;;5048206;28;20088;-60
2023/04/12 09:34:16;;;;;;;73.05;14.27;;;22.50;39.70;;;;;;5047943;28;20151;-61
2023/04/12 09:36:42;;;;;;;53.60;12.88;;;22.50;40.50;;;;;;5047140;28;20139;-61
2023/04/12 09:39:09;;;;;;;51.88;13.25;;;22.40;40.70;;;;;;5047154;28;20128;-61
2023/04/12 09:41:35;;;;;;;60.00;13.40;;;22.40;42.10;;;;;;5044778;28;20425;-62
2023/04/12 09:44:02;;;;;;;55.75;13.38;;;22.20;42.70;;;;;;5048152;28;20595;-60
2023/04/12 09:46:29;;;;;;;44.58;11.90;;;22.20;42.30;;;;;;5048405;28;20507;-61
2023/04/12 09:49:02;;;;;;;41.70;12.02;;;22.20;42.30;;;;;;5047470;28;20138;-61
2023/04/12 09:51:31;;;;;;;49.63;10.50;;;22.10;43.40;;;;;;5045966;28;20108;-61
2023/04/12 09:53:59;;;;;;;43.50;11.15;;;22.00;42.50;;;;;;5047069;28;20111;-61
2023/04/12 09:56:34;;;;;;;36.60;11.00;;;22.00;42.30;;;;;;5046807;28;20073;-61
2023/04/12 09:59:05;;;;;;;52.83;11.52;;;22.00;43.60;;;;;;5048182;28;20068;-61
2023/04/12 10:01:35;;;;;;;48.13;11.57;;;21.80;43.90;;;;;;5046826;28;20550;-60
2023/04/12 10:04:04;;;;;;;54.40;12.75;;;21.90;42.90;;;;;;5051838;28;20095;-60
2023/04/12 10:06:35;;;;;;;57.67;12.45;;;21.90;42.90;;;;;;5047016;28;20072;-60
2023/04/12 10:09:07;;;;;;;34.25;10.52;;;21.90;42.70;;;;;;5047396;28;20138;-61
2023/04/12 10:11:34;;;;;;;40.03;11.77;;;21.80;44.00;;;;;;5046343;28;20088;-61
2023/04/12 10:14:05;;;;;;;47.47;11.57;;;21.60;43.80;;;;;;5047410;28;20076;-61
2023/04/12 10:16:33;;;;;;;59.75;12.20;;;21.70;43.90;;;;;;5047971;28;20135;-62
2023/04/12 10:19:03;;;;;;;52.58;10.80;;;21.70;43.70;;;;;;5048091;28;20068;-61
2023/04/12 10:21:30;;;;;;;38.95;10.90;;;21.60;43.70;;;;;;5049852;28;20073;-60
2023/04/12 10:23:57;;;;;;;47.75;11.70;;;21.60;43.80;;;;;;5046913;28;20108;-60
2023/04/12 10:26:24;;;;;;;34.97;10.98;;;21.60;43.70;;;;;;5047174;28;20100;-62
2023/04/12 10:29:27;;;;;;;37.17;11.23;;;21.50;43.90;;;;;;5047185;28;20084;-60
2023/04/12 10:32:17;;;;;;;31.67;9.93;;;21.50;45.10;;;;;;5047142;28;20092;-61
2023/04/12 10:34:43;;;;;;;39.72;10.57;;;21.40;45.80;;;;;;5046764;28;20092;-61
2023/04/12 10:37:10;;;;;;;38.20;9.75;;;21.30;46.20;;;;;;5047228;28;20528;-60
2023/04/12 10:39:41;;;;;;;48.65;9.68;;;21.40;45.70;;;;;;5046877;28;20099;-62
2023/04/12 10:42:25;;;;;;;38.72;9.50;;;21.40;46.20;;;;;;5043425;28;20107;-61
2023/04/12 10:44:56;;;;;;;46.83;9.40;;;21.30;47.50;;;;;;5046341;28;20069;-61
2023/04/12 10:47:47;;;;;;;27.60;9.60;;;21.30;47.00;;;;;;5046979;28;20564;-61
2023/04/12 10:50:29;;;;;;;37.88;10.10;;;21.30;46.70;;;;;;5048031;28;20095;-60
2023/04/12 10:53:19;;;;;;;33.38;9.82;;;21.20;47.60;;;;;;5046824;28;20069;-60
2023/04/12 10:55:45;;;;;;;31.13;9.95;;;21.10;48.00;;;;;;5046402;28;20079;-60
2023/04/12 10:58:46;;;;;;;35.63;9.52;;;21.20;47.90;;;;;;5047173;28;20439;-61
2023/04/12 11:01:17;;;;;;;36.28;10.73;;;21.10;47.50;;;;;;5046592;28;20154;-60
2023/04/12 11:04:15;;;;;;;33.78;10.73;;;21.10;47.20;;;;;;5050753;28;20280;-60
2023/04/12 11:06:52;;;;;;;35.10;11.57;;;21.10;47.80;;;;;;5046513;28;20456;-61
2023/04/12 11:09:24;;;;;;;38.97;10.75;;;21.10;47.10;;;;;;5046722;28;20117;-61
2023/04/12 11:12:12;;;;;;;45.08;12.05;;;21.00;47.40;;;;;;5046132;28;20088;-61
2023/04/12 11:14:49;;;;;;;46.85;12.52;;;20.90;47.50;;;;;;5047693;28;20159;-62
2023/04/12 11:17:16;;;;;;;45.00;12.45;;;20.90;47.20;;;;;;5046942;28;20812;-60
2023/04/12 11:19:42;;;;;;;52.33;13.25;;;20.90;47.00;;;;;;5050339;28;20543;-61
2023/04/12 11:22:11;;;;;;;40.08;12.45;;;21.00;46.80;;;;;;5046338;28;20079;-61
2023/04/12 11:24:44;;;;;;;55.78;14.13;;;21.00;46.60;;;;;;5046195;28;20112;-61
2023/04/12 11:27:11;;;;;;;46.33;12.70;;;21.00;46.30;;;;;;5046328;28;20515;-61
2023/04/12 11:29:38;;;;;;;55.40;13.70;;;21.00;46.10;;;;;;5046344;28;20068;-62
2023/04/12 11:32:09;;;;;;;45.63;13.85;;;21.00;45.80;;;;;;5047509;28;21235;-64
2023/04/12 11:34:36;;;;;;;50.15;13.07;;;20.90;44.60;;;;;;5046898;28;20153;-60
2023/04/12 11:37:06;;;;;;;51.55;12.82;;;21.00;44.40;;;;;;5048787;28;20099;-60
2023/04/12 11:39:34;;;;;;;42.03;12.65;;;20.90;44.70;;;;;;5050525;28;20084;-60
2023/04/12 11:42:02;;;;;;;50.50;13.43;;;20.90;45.20;;;;;;5047765;28;20096;-61
2023/04/12 11:44:30;;;;;;;40.53;13.57;;;20.70;45.30;;;;;;5049039;28;20541;-60
2023/04/12 11:46:56;;;;;;;46.30;14.43;;;20.70;44.70;;;;;;5049950;28;20200;-61
2023/04/12 11:49:23;;;;;;;41.58;13.88;;;20.80;44.70;;;;;;5048650;28;20073;-61
2023/04/12 11:51:50;;;;;;;50.30;13.38;;;20.70;44.60;;;;;;5048472;28;20095;-60
2023/04/12 11:54:16;;;;;;;31.38;12.90;;;20.70;44.70;;;;;;5049564;28;20130;-60
2023/04/12 11:56:42;;;;;;;51.78;13.20;;;20.70;45.30;;;;;;5049934;28;20075;-60
2023/04/12 11:59:09;;;;;;;40.97;13.15;;;20.70;45.60;;;;;;5049685;28;20095;-61
2023/04/12 12:01:36;;;;;;;46.60;13.15;;;20.80;45.30;;;;;;5050792;28;20076;-60
2023/04/12 12:04:04;;;;;;;54.22;14.25;;;20.80;45.60;;;;;;5052765;28;20533;-60
2023/04/12 12:06:30;;;;;;;46.67;13.93;;;20.70;45.50;;;;;;5049842;28;20080;-61
2023/04/12 12:08:58;;;;;;;40.33;13.50;;;20.70;45.60;;;;;;5051698;28;20487;-60
2023/04/12 12:11:25;;;;;;;38.97;13.70;;;20.70;45.60;;;;;;5049233;28;20080;-61
2023/04/12 12:13:55;;;;;;;48.78;12.95;;;20.60;46.00;;;;;;5049475;28;20072;-61
2023/04/12 12:16:27;;;;;;;42.17;13.10;;;20.60;46.60;;;;;;5050192;28;20076;-61
2023/04/12 12:18:55;;;;;;;49.22;13.60;;;20.60;47.10;;;;;;5048465;28;20073;-61
2023/04/12 12:21:21;;;;;;;32.63;11.90;;;20.60;47.90;;;;;;5048151;28;20069;-61
2023/04/12 12:23:49;;;;;;;41.53;13.82;;;20.60;47.70;;;;;;5048793;28;20080;-61
2023/04/12 12:26:24;;;;;;;39.60;13.05;;;20.50;48.10;;;;;;5049010;28;20185;-61
2023/04/12 12:28:53;;;;;;;48.53;13.80;;;20.50;48.60;;;;;;5049214;28;20157;-60
2023/04/12 12:31:25;;;;;;;48.75;13.15;;;20.50;48.90;;;;;;5049567;28;20084;-61
2023/04/12 12:33:56;;;;;;;45.97;12.95;;;20.50;49.40;;;;;;5047809;28;20151;-62
2023/04/12 12:36:33;;;;;;;32.45;11.45;;;20.40;49.70;;;;;;5052439;28;20065;-60
2023/04/12 12:39:05;;;;;;;;;;;20.40;49.80;;;;;;5048229;28;20084;-60
2023/04/12 12:41:32;;;;;;;39.42;11.40;;;20.30;49.70;;;;;;5048354;28;20449;-62
2023/04/12 12:43:59;;;;;;;30.90;12.40;;;20.20;50.20;;;;;;5045581;28;20126;-62
2023/04/12 12:46:26;;;;;;;34.67;11.82;;;20.00;51.80;;;;;;5049637;28;20122;-63